createdAt,value
2022-10-06T00:01:06.674Z,40.40
2022-10-06T00:03:33.935Z,39.90
2022-10-06T00:06:03.419Z,40.70
2022-10-06T00:08:37.317Z,40.50
2022-10-06T00:11:04.857Z,40.50
2022-10-06T00:13:33.136Z,40.50
2022-10-06T00:16:00.556Z,41.10
2022-10-06T00:18:29.045Z,40.50
2022-10-06T00:21:01.632Z,40.50
2022-10-06T00:23:29.778Z,40.60
2022-10-06T00:25:58.033Z,40.60
2022-10-06T00:28:26.318Z,40.60
2022-10-06T00:30:56.081Z,40.60
2022-10-06T00:33:24.235Z,40.60
2022-10-06T00:35:58.587Z,41.00
2022-10-06T00:38:26.158Z,40.70
2022-10-06T00:40:53.463Z,40.60
2022-10-06T00:43:57.623Z,40.70
2022-10-06T00:46:30.070Z,40.80
2022-10-06T00:49:23.384Z,40.60
2022-10-06T00:51:57.760Z,40.80
2022-10-06T00:54:26.545Z,40.70
2022-10-06T00:56:53.435Z,40.70
2022-10-06T00:59:20.769Z,40.70
2022-10-06T01:02:08.726Z,40.70
2022-10-06T01:04:40.512Z,40.90
2022-10-06T01:07:08.018Z,40.80
2022-10-06T01:09:35.431Z,40.80
2022-10-06T01:12:07.521Z,40.80
2022-10-06T01:14:37.489Z,40.80
2022-10-06T01:17:30.038Z,40.80
2022-10-06T01:20:04.524Z,40.90
2022-10-06T01:22:39.596Z,40.90
2022-10-06T01:25:10.160Z,40.80
2022-10-06T01:27:40.330Z,40.80
2022-10-06T01:30:15.667Z,40.90
2022-10-06T01:32:43.456Z,40.90
2022-10-06T01:35:11.765Z,40.30
2022-10-06T01:37:39.920Z,41.00
2022-10-06T01:40:07.559Z,40.80
2022-10-06T01:42:35.878Z,41.00
2022-10-06T01:45:04.071Z,40.90
2022-10-06T01:47:31.267Z,40.90
2022-10-06T01:49:58.086Z,40.90
2022-10-06T01:52:25.120Z,40.90
2022-10-06T01:54:53.080Z,40.90
2022-10-06T01:57:21.431Z,40.90
2022-10-06T01:59:52.694Z,41.00
2022-10-06T02:02:21.740Z,41.00
2022-10-06T02:04:48.741Z,41.00
2022-10-06T02:07:16.031Z,41.00
2022-10-06T02:09:43.079Z,41.00
2022-10-06T02:12:09.918Z,40.40
2022-10-06T02:14:36.740Z,41.00
2022-10-06T02:17:03.869Z,41.00
2022-10-06T02:19:30.698Z,41.50
2022-10-06T02:21:58.383Z,41.00
2022-10-06T02:24:25.352Z,41.10
2022-10-06T02:26:53.636Z,41.00
2022-10-06T02:29:20.788Z,41.10
2022-10-06T02:31:49.566Z,41.10
2022-10-06T02:34:16.437Z,41.10
2022-10-06T02:36:43.498Z,41.10
2022-10-06T02:39:10.998Z,41.20
2022-10-06T02:41:37.850Z,41.10
2022-10-06T02:44:05.177Z,41.10
2022-10-06T02:46:32.486Z,41.20
2022-10-06T02:48:59.608Z,41.20
2022-10-06T02:51:26.682Z,41.20
2022-10-06T02:53:54.408Z,41.20
2022-10-06T02:56:25.411Z,41.20
2022-10-06T02:58:53.849Z,41.20
2022-10-06T03:01:27.558Z,41.20
2022-10-06T03:03:54.933Z,41.30
2022-10-06T03:06:28.716Z,41.20
2022-10-06T03:08:58.640Z,41.90
2022-10-06T03:11:41.332Z,41.20
2022-10-06T03:14:08.780Z,41.30
2022-10-06T03:16:43.577Z,41.30
2022-10-06T03:19:11.036Z,41.20
2022-10-06T03:21:42.293Z,41.20
2022-10-06T03:24:10.333Z,41.20
2022-10-06T03:26:46.388Z,41.20
2022-10-06T03:29:14.455Z,41.40
2022-10-06T03:31:41.350Z,41.30
2022-10-06T03:34:08.652Z,41.30
2022-10-06T03:36:36.571Z,41.30
2022-10-06T03:39:05.543Z,41.30
2022-10-06T03:41:36.410Z,41.30
2022-10-06T03:44:04.479Z,41.40
2022-10-06T03:46:34.740Z,41.40
2022-10-06T03:49:02.054Z,41.40
2022-10-06T03:51:37.024Z,42.00
2022-10-06T03:54:04.393Z,41.40
2022-10-06T03:56:35.363Z,41.40
2022-10-06T03:59:05.879Z,41.40
2022-10-06T04:01:45.639Z,41.40
2022-10-06T04:04:13.898Z,41.50
2022-10-06T04:06:44.254Z,41.40
2022-10-06T04:09:15.758Z,41.40
2022-10-06T04:11:44.727Z,41.50
2022-10-06T04:14:15.378Z,41.50
2022-10-06T04:16:48.854Z,41.40
2022-10-06T04:19:18.035Z,41.60
2022-10-06T04:21:47.689Z,41.40
2022-10-06T04:24:17.151Z,40.90
2022-10-06T04:26:46.452Z,41.50
2022-10-06T04:29:14.246Z,41.50
2022-10-06T04:31:42.633Z,41.50
2022-10-06T04:34:13.403Z,41.50
2022-10-06T04:36:42.668Z,41.60
2022-10-06T04:39:11.824Z,41.50
2022-10-06T04:41:42.166Z,41.60
2022-10-06T04:44:10.363Z,41.60
2022-10-06T04:46:43.376Z,41.50
2022-10-06T04:49:18.531Z,41.60
2022-10-06T04:51:46.087Z,41.60
2022-10-06T04:54:13.132Z,41.60
2022-10-06T04:56:40.111Z,41.60
2022-10-06T04:59:07.023Z,41.00
2022-10-06T05:01:37.916Z,41.90
2022-10-06T05:04:06.245Z,41.70
2022-10-06T05:06:41.079Z,41.60
2022-10-06T05:09:15.564Z,41.60
2022-10-06T05:11:42.638Z,41.70
2022-10-06T05:14:09.537Z,41.70
2022-10-06T05:16:39.217Z,41.60
2022-10-06T05:19:06.304Z,41.60
2022-10-06T05:21:33.979Z,41.60
2022-10-06T05:24:02.804Z,41.70
2022-10-06T05:26:33.825Z,42.00
2022-10-06T05:29:01.162Z,41.90
2022-10-06T05:31:35.068Z,41.70
2022-10-06T05:34:04.973Z,41.90
2022-10-06T05:36:34.198Z,41.70
2022-10-06T05:39:05.082Z,41.10
2022-10-06T05:41:34.044Z,42.60
2022-10-06T05:44:01.230Z,41.70
2022-10-06T05:46:30.717Z,41.80
2022-10-06T05:49:01.044Z,41.80
2022-10-06T05:51:34.280Z,41.90
2022-10-06T05:54:02.265Z,41.40
2022-10-06T05:56:36.075Z,42.10
2022-10-06T05:59:04.085Z,42.10
2022-10-06T06:01:37.386Z,42.10
2022-10-06T06:04:08.415Z,42.20
2022-10-06T06:06:47.252Z,42.30
2022-10-06T06:09:20.610Z,42.40
2022-10-06T06:11:50.630Z,42.40
2022-10-06T06:14:39.826Z,42.40
2022-10-06T06:17:11.406Z,42.50
2022-10-06T06:19:38.232Z,42.70
2022-10-06T06:22:05.157Z,42.60
2022-10-06T06:24:31.999Z,42.60
2022-10-06T06:27:06.236Z,42.60
2022-10-06T06:29:33.144Z,42.70
2022-10-06T06:31:59.960Z,42.60
2022-10-06T06:34:27.405Z,42.60
2022-10-06T06:37:03.574Z,42.60
2022-10-06T06:39:34.325Z,42.60
2022-10-06T06:42:02.097Z,42.60
2022-10-06T06:44:30.066Z,42.60
2022-10-06T06:46:57.055Z,42.60
2022-10-06T06:49:26.929Z,42.50
2022-10-06T06:51:54.483Z,42.50
2022-10-06T06:54:27.657Z,42.50
2022-10-06T06:56:57.701Z,42.50
2022-10-06T06:59:25.245Z,42.50
2022-10-06T07:01:57.188Z,42.40
2022-10-06T07:04:24.067Z,42.60
2022-10-06T07:06:58.255Z,41.80
2022-10-06T07:09:26.683Z,42.30
2022-10-06T07:11:55.008Z,42.30
2022-10-06T07:14:24.102Z,42.30
2022-10-06T07:17:10.147Z,42.30
2022-10-06T07:19:57.459Z,42.20
2022-10-06T07:22:49.204Z,42.10
2022-10-06T07:25:26.971Z,42.00
2022-10-06T07:27:55.164Z,41.90
2022-10-06T07:30:29.063Z,42.00
2022-10-06T07:32:56.159Z,42.00
2022-10-06T07:35:25.144Z,42.00
2022-10-06T07:37:55.576Z,42.00
2022-10-06T07:40:22.739Z,41.40
2022-10-06T07:42:51.844Z,41.90
2022-10-06T07:45:42.983Z,42.00
2022-10-06T07:48:11.306Z,41.90
2022-10-06T07:50:39.552Z,42.00
2022-10-06T07:53:08.829Z,41.90
2022-10-06T07:55:43.416Z,42.00
2022-10-06T07:58:24.081Z,41.80
2022-10-06T08:00:55.871Z,41.70
2022-10-06T08:03:22.907Z,40.70
2022-10-06T08:05:58.101Z,40.50
2022-10-06T08:08:25.410Z,40.70
2022-10-06T08:11:00.260Z,41.00
2022-10-06T08:13:29.002Z,40.60
2022-10-06T08:15:56.529Z,41.10
2022-10-06T08:18:45.387Z,41.10
2022-10-06T08:21:19.297Z,41.20
2022-10-06T08:23:48.921Z,41.10
2022-10-06T08:26:18.541Z,41.30
2022-10-06T08:28:49.181Z,40.70
2022-10-06T08:31:22.214Z,41.20
2022-10-06T08:33:54.643Z,41.20
2022-10-06T08:36:21.926Z,41.20
2022-10-06T08:38:51.800Z,40.70
2022-10-06T08:41:51.475Z,41.20
2022-10-06T08:44:34.864Z,41.20
2022-10-06T08:47:24.521Z,41.20
2022-10-06T08:49:55.214Z,40.70
2022-10-06T08:52:51.697Z,41.20
2022-10-06T08:55:48.279Z,41.30
2022-10-06T08:59:04.107Z,41.20
2022-10-06T09:01:47.619Z,41.20
2022-10-06T09:04:28.798Z,41.20
2022-10-06T09:07:11.520Z,40.70
2022-10-06T09:10:20.272Z,40.70
2022-10-06T09:13:09.369Z,41.20
2022-10-06T09:15:53.003Z,41.20
2022-10-06T09:19:03.507Z,41.20
2022-10-06T09:21:40.072Z,41.40
2022-10-06T09:24:15.326Z,41.30
2022-10-06T09:26:45.441Z,41.30
2022-10-06T09:29:14.655Z,41.40
2022-10-06T09:31:52.864Z,41.40
2022-10-06T09:34:45.588Z,41.40
2022-10-06T09:37:16.288Z,41.50
2022-10-06T09:39:49.858Z,41.60
2022-10-06T09:42:35.514Z,41.00
2022-10-06T09:45:16.409Z,41.50
2022-10-06T09:47:46.365Z,41.50
2022-10-06T09:50:30.178Z,41.70
2022-10-06T09:53:09.213Z,41.50
2022-10-06T09:55:39.052Z,41.70
2022-10-06T09:58:34.754Z,41.80
2022-10-06T10:01:07.903Z,41.70
2022-10-06T10:04:15.356Z,41.70
2022-10-06T10:06:40.138Z,41.90
2022-10-06T10:09:29.721Z,41.30
2022-10-06T10:12:28.064Z,41.20
2022-10-06T10:15:12.284Z,41.30
2022-10-06T10:17:53.690Z,41.30
2022-10-06T10:20:25.227Z,41.80
2022-10-06T10:22:57.558Z,41.90
2022-10-06T10:25:51.943Z,41.90
2022-10-06T10:29:16.585Z,41.80
2022-10-06T10:32:17.049Z,41.80
2022-10-06T10:35:13.584Z,41.80
2022-10-06T10:37:51.693Z,41.80
2022-10-06T10:40:27.600Z,41.80
2022-10-06T10:43:12.559Z,41.80
2022-10-06T10:46:11.377Z,41.80
2022-10-06T10:48:56.767Z,41.50
2022-10-06T10:51:32.216Z,42.50
2022-10-06T10:54:10.844Z,42.10
2022-10-06T10:56:37.801Z,42.20
2022-10-06T10:59:34.064Z,42.40
2022-10-06T11:02:35.779Z,42.10
2022-10-06T11:05:46.920Z,42.20
2022-10-06T11:08:40.018Z,42.00
2022-10-06T11:11:37.978Z,42.10
2022-10-06T11:14:36.696Z,41.80
2022-10-06T11:17:47.102Z,41.80
2022-10-06T11:20:43.136Z,41.80
2022-10-06T11:23:34.755Z,41.50
2022-10-06T11:26:26.456Z,41.20
2022-10-06T11:29:00.818Z,41.00
2022-10-06T11:31:51.514Z,41.00
2022-10-06T11:34:18.457Z,40.90
2022-10-06T11:37:04.684Z,41.10
2022-10-06T11:40:02.949Z,40.60
2022-10-06T11:43:14.052Z,40.50
2022-10-06T11:46:01.157Z,40.00
2022-10-06T11:48:32.953Z,39.80
2022-10-06T11:51:24.929Z,39.80
2022-10-06T11:53:53.117Z,39.80
2022-10-06T11:56:19.933Z,40.80
2022-10-06T11:58:55.778Z,40.30
2022-10-06T12:01:47.683Z,39.80
2022-10-06T12:04:20.713Z,39.70
2022-10-06T12:06:56.091Z,40.10
2022-10-06T12:09:35.830Z,39.80
2022-10-06T12:12:25.435Z,39.50
2022-10-06T12:17:09.407Z,39.50
2022-10-06T12:18:32.985Z,39.30
2022-10-06T12:21:32.906Z,39.10
2022-10-06T12:24:02.675Z,39.00
2022-10-06T12:26:43.909Z,39.50
2022-10-06T12:29:52.329Z,39.00
2022-10-06T12:33:15.972Z,38.80
2022-10-06T12:35:44.880Z,38.90
2022-10-06T12:38:33.965Z,39.20
2022-10-06T12:41:01.677Z,38.50
2022-10-06T12:43:53.789Z,38.90
2022-10-06T12:46:27.262Z,38.20
2022-10-06T12:49:15.002Z,38.40
2022-10-06T12:51:47.404Z,37.70
2022-10-06T12:54:32.299Z,37.70
2022-10-06T12:57:00.238Z,37.30
2022-10-06T12:59:33.950Z,37.40
2022-10-06T13:02:22.296Z,37.10
2022-10-06T13:04:57.439Z,37.00
2022-10-06T13:07:33.899Z,37.10
2022-10-06T13:10:19.865Z,37.10
2022-10-06T13:12:50.215Z,37.00
2022-10-06T13:15:23.863Z,37.10
2022-10-06T13:18:13.329Z,37.00
2022-10-06T13:20:52.054Z,37.10
2022-10-06T13:23:29.210Z,37.00
2022-10-06T13:26:18.929Z,37.10
2022-10-06T13:28:50.569Z,37.10
2022-10-06T13:31:28.946Z,37.10
2022-10-06T13:34:02.618Z,37.10
2022-10-06T13:36:33.800Z,37.20
2022-10-06T13:39:06.521Z,37.30
2022-10-06T13:41:45.949Z,37.30
2022-10-06T13:44:16.345Z,37.40
2022-10-06T13:46:51.083Z,37.50
2022-10-06T13:49:47.366Z,37.50
2022-10-06T13:52:40.051Z,37.50
2022-10-06T13:55:24.895Z,37.70
2022-10-06T13:58:18.411Z,37.80
2022-10-06T14:01:03.940Z,37.80
2022-10-06T14:06:28.077Z,37.80
2022-10-06T14:08:58.430Z,38.00
2022-10-06T14:11:29.831Z,38.00
2022-10-06T14:14:04.619Z,37.50
2022-10-06T14:16:32.020Z,38.10
2022-10-06T14:19:03.217Z,38.30
2022-10-06T14:21:35.656Z,38.20
2022-10-06T14:24:19.359Z,38.30
2022-10-06T14:26:54.779Z,38.30
2022-10-06T14:29:23.105Z,38.30
2022-10-06T14:31:50.565Z,38.40
2022-10-06T14:34:20.351Z,38.30
2022-10-06T14:36:55.024Z,38.20
2022-10-06T14:39:22.213Z,38.20
2022-10-06T14:41:49.293Z,38.00
2022-10-06T14:44:16.342Z,38.10
2022-10-06T14:46:48.183Z,38.00
2022-10-06T14:49:15.924Z,38.00
2022-10-06T14:51:44.589Z,38.00
2022-10-06T14:54:12.986Z,38.00
2022-10-06T14:56:42.033Z,38.10
2022-10-06T14:59:16.652Z,38.00
2022-10-06T15:01:44.606Z,38.30
2022-10-06T15:04:24.879Z,38.10
2022-10-06T15:07:10.496Z,38.10
2022-10-06T15:09:37.737Z,38.00
2022-10-06T15:12:04.946Z,38.10
2022-10-06T15:14:32.094Z,38.10
2022-10-06T15:17:00.326Z,38.20
2022-10-06T15:19:27.700Z,37.60
2022-10-06T15:21:54.862Z,38.20
2022-10-06T15:24:24.588Z,38.20
2022-10-06T15:27:10.037Z,38.20
2022-10-06T15:29:37.197Z,38.30
2022-10-06T15:32:06.357Z,38.30
2022-10-06T15:34:42.151Z,37.80
2022-10-06T15:37:09.250Z,38.30
2022-10-06T15:39:37.897Z,38.90
2022-10-06T15:42:06.136Z,38.50
2022-10-06T15:44:34.737Z,38.30
2022-10-06T15:47:04.698Z,38.30
2022-10-06T15:49:32.887Z,38.40
2022-10-06T15:52:04.133Z,38.40
2022-10-06T15:54:39.429Z,38.40
2022-10-06T15:57:16.398Z,37.80
2022-10-06T15:59:46.525Z,38.40
2022-10-06T16:02:16.269Z,38.30
2022-10-06T16:04:44.765Z,38.40
2022-10-06T16:07:19.854Z,38.40
2022-10-06T16:09:49.745Z,38.50
2022-10-06T16:12:23.176Z,38.50
2022-10-06T16:14:50.160Z,38.50
2022-10-06T16:17:18.117Z,38.50
2022-10-06T16:19:45.137Z,38.50
2022-10-06T16:22:15.408Z,38.50
2022-10-06T16:24:42.509Z,38.50
2022-10-06T16:27:14.703Z,38.60
2022-10-06T16:29:41.701Z,38.60
2022-10-06T16:32:09.061Z,38.60
2022-10-06T16:34:36.052Z,38.60
2022-10-06T16:37:03.006Z,38.50
2022-10-06T16:39:29.911Z,38.60
2022-10-06T16:41:56.820Z,38.60
2022-10-06T16:44:23.830Z,38.60
2022-10-06T16:46:50.950Z,38.70
2022-10-06T16:49:17.931Z,38.90
2022-10-06T16:51:48.186Z,38.70
2022-10-06T16:54:19.215Z,38.80
2022-10-06T16:56:52.091Z,38.70
2022-10-06T16:59:25.981Z,38.70
2022-10-06T17:01:53.215Z,38.80
2022-10-06T17:04:23.847Z,38.60
2022-10-06T17:06:54.472Z,38.70
2022-10-06T17:09:28.030Z,38.70
2022-10-06T17:12:03.363Z,38.70
2022-10-06T17:14:33.206Z,38.80
2022-10-06T17:17:00.787Z,38.70
2022-10-06T17:19:29.779Z,38.70
2022-10-06T17:21:59.341Z,38.70
2022-10-06T17:24:28.973Z,38.80
2022-10-06T17:26:57.535Z,38.70
2022-10-06T17:29:25.925Z,38.10
2022-10-06T17:31:58.578Z,38.80
2022-10-06T17:34:31.353Z,38.80
2022-10-06T17:37:01.136Z,38.80
2022-10-06T17:39:28.036Z,38.70
2022-10-06T17:41:55.172Z,38.80
2022-10-06T17:44:26.325Z,38.80
2022-10-06T17:46:57.268Z,38.90
2022-10-06T17:49:25.420Z,38.90
2022-10-06T17:51:54.782Z,38.90
2022-10-06T17:54:24.817Z,39.00
2022-10-06T17:56:55.842Z,39.00
2022-10-06T17:59:28.881Z,39.10
2022-10-06T18:01:59.256Z,39.00
2022-10-06T18:04:27.003Z,39.60
2022-10-06T18:06:54.590Z,39.10
2022-10-06T18:09:22.371Z,39.00
2022-10-06T18:11:54.791Z,39.10
2022-10-06T18:14:24.970Z,39.10
2022-10-06T18:17:01.227Z,39.10
2022-10-06T18:19:32.069Z,39.20
2022-10-06T18:22:11.832Z,39.20
2022-10-06T18:24:40.106Z,39.20
2022-10-06T18:27:08.069Z,39.20
2022-10-06T18:29:38.140Z,39.20
2022-10-06T18:37:43.015Z,39.20
2022-10-06T18:40:11.132Z,39.20
2022-10-06T18:42:39.199Z,39.30
2022-10-06T18:45:26.229Z,39.30
2022-10-06T18:48:11.462Z,39.30
2022-10-06T18:50:41.498Z,39.40
2022-10-06T18:53:08.619Z,39.40
2022-10-06T18:55:35.699Z,39.30
2022-10-06T18:58:04.453Z,39.40
2022-10-06T19:00:32.002Z,39.40
2022-10-06T19:02:58.943Z,38.90
2022-10-06T19:05:25.957Z,39.40
2022-10-06T19:07:54.063Z,39.90
2022-10-06T19:10:21.104Z,39.50
2022-10-06T19:12:48.424Z,39.50
2022-10-06T19:15:20.274Z,38.90
2022-10-06T19:17:48.289Z,39.60
2022-10-06T19:20:15.410Z,39.60
2022-10-06T19:22:43.448Z,39.60
2022-10-06T19:25:11.268Z,39.70
2022-10-06T19:27:38.380Z,39.70
2022-10-06T19:30:06.765Z,39.70
2022-10-06T19:32:34.378Z,39.70
2022-10-06T19:35:02.716Z,39.80
2022-10-06T19:37:31.690Z,39.70
2022-10-06T19:39:58.715Z,39.70
2022-10-06T19:42:44.484Z,39.80
2022-10-06T19:45:12.250Z,39.80
2022-10-06T19:47:40.290Z,39.80
2022-10-06T19:50:12.009Z,39.80
2022-10-06T19:52:40.951Z,39.80
2022-10-06T19:55:08.163Z,39.90
2022-10-06T19:57:35.496Z,39.90
2022-10-06T20:00:05.439Z,40.20
2022-10-06T20:02:32.424Z,40.00
2022-10-06T20:04:59.332Z,39.40
2022-10-06T20:07:27.925Z,39.90
2022-10-06T20:09:55.762Z,40.00
2022-10-06T20:12:25.150Z,40.00
2022-10-06T20:14:53.649Z,40.10
2022-10-06T20:17:21.638Z,40.00
2022-10-06T20:19:48.657Z,40.10
2022-10-06T20:22:15.635Z,40.10
2022-10-06T20:24:42.762Z,40.10
2022-10-06T20:27:10.238Z,40.10
2022-10-06T20:29:38.308Z,40.10
2022-10-06T20:32:05.552Z,40.20
2022-10-06T20:34:33.119Z,40.10
2022-10-06T20:37:04.741Z,40.20
2022-10-06T20:39:52.112Z,40.20
2022-10-06T20:42:20.864Z,40.30
2022-10-06T20:44:48.477Z,40.30
2022-10-06T20:47:16.689Z,40.30
2022-10-06T20:49:44.576Z,39.60
2022-10-06T20:52:14.665Z,40.30
2022-10-06T20:54:42.043Z,39.80
2022-10-06T20:57:09.667Z,40.30
2022-10-06T20:59:37.558Z,40.30
2022-10-06T21:02:06.134Z,40.30
2022-10-06T21:04:34.541Z,39.70
2022-10-06T21:07:05.584Z,40.40
2022-10-06T21:09:32.450Z,40.30
2022-10-06T21:11:59.363Z,40.40
2022-10-06T21:14:26.259Z,40.40
2022-10-06T21:16:54.457Z,40.50
2022-10-06T21:19:21.499Z,40.50
2022-10-06T21:21:51.526Z,40.50
2022-10-06T21:24:19.386Z,40.50
2022-10-06T21:26:46.538Z,40.50
2022-10-06T21:29:15.316Z,40.60
2022-10-06T21:31:43.573Z,40.60
2022-10-06T21:34:10.829Z,40.60
2022-10-06T21:36:38.477Z,40.60
2022-10-06T21:39:06.215Z,40.70
2022-10-06T21:41:41.210Z,40.60
2022-10-06T21:44:18.144Z,40.80
2022-10-06T21:46:56.126Z,40.70
2022-10-06T21:49:25.353Z,40.80
2022-10-06T21:51:56.213Z,40.70
2022-10-06T21:54:23.912Z,40.70
2022-10-06T21:56:51.197Z,40.70
2022-10-06T21:59:18.372Z,40.80
2022-10-06T22:01:47.633Z,40.80
2022-10-06T22:04:15.779Z,40.80
2022-10-06T22:06:45.067Z,40.80
2022-10-06T22:09:20.758Z,40.80
2022-10-06T22:11:48.527Z,40.90
2022-10-06T22:14:18.040Z,40.80
2022-10-06T22:16:45.130Z,40.80
2022-10-06T22:19:14.450Z,40.80
2022-10-06T22:21:45.221Z,40.90
2022-10-06T22:24:18.167Z,40.90
2022-10-06T22:26:45.498Z,40.90
2022-10-06T22:29:16.124Z,40.90
2022-10-06T22:31:46.265Z,40.90
2022-10-06T22:34:16.940Z,40.90
2022-10-06T22:36:44.402Z,41.00
2022-10-06T22:39:11.353Z,41.00
2022-10-06T22:41:38.432Z,41.10
2022-10-06T22:44:05.544Z,41.00
2022-10-06T22:46:35.773Z,40.90
2022-10-06T22:49:03.412Z,41.00
2022-10-06T22:51:30.642Z,41.00
2022-10-06T22:54:00.030Z,41.00
2022-10-06T22:56:31.277Z,41.00
2022-10-06T22:58:59.603Z,41.10
2022-10-06T23:01:28.312Z,41.10
2022-10-06T23:03:55.740Z,41.10
2022-10-06T23:06:22.931Z,41.10
2022-10-06T23:08:49.969Z,41.10
2022-10-06T23:11:20.470Z,41.10
2022-10-06T23:13:48.448Z,41.10
2022-10-06T23:16:18.110Z,41.10
2022-10-06T23:18:45.550Z,41.10
2022-10-06T23:21:22.834Z,41.50
2022-10-06T23:23:56.037Z,41.30
2022-10-06T23:26:24.315Z,41.20
2022-10-06T23:28:57.604Z,41.20
2022-10-06T23:31:28.953Z,41.20
2022-10-06T23:33:56.312Z,41.30
2022-10-06T23:36:23.169Z,41.20
2022-10-06T23:38:50.118Z,41.20
2022-10-06T23:41:17.302Z,41.30
2022-10-06T23:43:44.440Z,41.30
2022-10-06T23:46:12.128Z,41.30
2022-10-06T23:48:39.414Z,41.20
2022-10-06T23:51:13.979Z,41.30
2022-10-06T23:53:43.695Z,41.20
2022-10-06T23:56:11.583Z,41.30
2022-10-06T23:58:38.903Z,41.20
